createdAt,value
2022-11-27T00:00:40.354Z,3.75
2022-11-27T00:03:10.033Z,3.62
2022-11-27T00:05:37.949Z,3.82
2022-11-27T00:08:05.958Z,3.74
2022-11-27T00:10:33.874Z,3.84
2022-11-27T00:13:01.628Z,3.67
2022-11-27T00:15:29.485Z,3.69
2022-11-27T00:17:58.577Z,3.77
2022-11-27T00:20:29.813Z,3.80
2022-11-27T00:22:59.553Z,3.85
2022-11-27T00:25:29.177Z,3.99
2022-11-27T00:27:58.742Z,3.98
2022-11-27T00:30:26.587Z,3.92
2022-11-27T00:32:57.020Z,3.85
2022-11-27T00:35:24.796Z,3.72
2022-11-27T00:37:54.368Z,3.59
2022-11-27T00:40:24.855Z,3.83
2022-11-27T00:42:55.334Z,3.72
2022-11-27T00:45:25.790Z,3.76
2022-11-27T00:47:56.250Z,3.78
2022-11-27T00:50:26.720Z,3.59
2022-11-27T00:52:54.441Z,3.67
2022-11-27T00:55:22.214Z,3.78
2022-11-27T00:57:52.664Z,3.70
2022-11-27T01:00:20.931Z,3.98
2022-11-27T01:02:51.456Z,4.07
2022-11-27T01:05:19.479Z,3.98
2022-11-27T01:07:49.150Z,3.93
2022-11-27T01:10:18.809Z,3.86
2022-11-27T01:12:50.407Z,3.72
2022-11-27T01:15:20.862Z,3.66
2022-11-27T01:17:50.482Z,3.65
2022-11-27T01:20:20.153Z,3.79
2022-11-27T01:22:50.515Z,3.95
2022-11-27T01:25:24.203Z,3.93
2022-11-27T01:27:54.696Z,3.88
2022-11-27T01:30:24.358Z,3.80
2022-11-27T01:32:53.940Z,3.92
2022-11-27T01:35:23.547Z,3.88
2022-11-27T01:37:53.039Z,3.68
2022-11-27T01:40:23.675Z,3.78
2022-11-27T01:42:53.137Z,3.83
2022-11-27T01:45:23.575Z,3.96
2022-11-27T01:48:01.616Z,3.71
2022-11-27T01:50:39.068Z,3.82
2022-11-27T01:53:18.631Z,3.81
2022-11-27T01:55:56.602Z,3.73
2022-11-27T01:58:30.212Z,3.89
2022-11-27T02:01:00.657Z,3.84
2022-11-27T02:03:30.275Z,3.91
2022-11-27T02:05:59.811Z,3.66
2022-11-27T02:08:29.455Z,3.84
2022-11-27T02:11:27.757Z,3.95
2022-11-27T02:14:36.270Z,4.10
2022-11-27T02:17:17.568Z,4.03
2022-11-27T02:20:49.155Z,3.88
2022-11-27T02:23:53.636Z,3.72
2022-11-27T02:26:50.602Z,3.89
2022-11-27T02:29:41.664Z,3.84
2022-11-27T02:32:52.550Z,3.82
2022-11-27T02:35:50.246Z,3.82
2022-11-27T02:38:32.670Z,4.02
2022-11-27T02:41:34.039Z,3.95
2022-11-27T02:44:06.720Z,4.06
2022-11-27T02:46:37.919Z,4.22
2022-11-27T02:49:13.814Z,4.10
2022-11-27T02:51:55.966Z,4.22
2022-11-27T02:54:30.417Z,4.14
2022-11-27T02:57:03.868Z,3.80
2022-11-27T02:59:37.503Z,3.97
2022-11-27T03:02:17.592Z,4.00
2022-11-27T03:04:57.012Z,3.99
2022-11-27T03:07:40.386Z,4.20
2022-11-27T03:10:55.696Z,4.01
2022-11-27T03:13:26.610Z,3.81
2022-11-27T03:16:08.073Z,4.04
2022-11-27T03:19:03.857Z,4.10
2022-11-27T03:21:40.226Z,4.07
2022-11-27T03:24:11.128Z,3.96
2022-11-27T03:26:42.019Z,3.91
2022-11-27T03:29:35.938Z,3.86
2022-11-27T03:32:06.117Z,4.15
2022-11-27T03:34:37.087Z,4.13
2022-11-27T03:37:06.891Z,4.17
2022-11-27T03:39:37.272Z,3.87
2022-11-27T03:42:18.385Z,3.85
2022-11-27T03:45:18.128Z,3.86
2022-11-27T03:48:17.792Z,3.87
2022-11-27T03:51:41.008Z,3.72
2022-11-27T03:54:59.203Z,3.87
2022-11-27T03:57:41.526Z,3.91
2022-11-27T04:00:12.763Z,3.99
2022-11-27T04:02:48.616Z,3.97
2022-11-27T04:05:19.673Z,4.09
2022-11-27T04:07:49.809Z,4.14
2022-11-27T04:10:19.542Z,4.09
2022-11-27T04:12:49.167Z,4.02
2022-11-27T04:15:18.904Z,4.08
2022-11-27T04:17:49.309Z,4.03
2022-11-27T04:20:19.692Z,4.01
2022-11-27T04:22:49.319Z,4.05
2022-11-27T04:25:19.887Z,4.02
2022-11-27T04:27:50.121Z,4.03
2022-11-27T04:30:20.197Z,3.87
2022-11-27T04:32:49.867Z,4.01
2022-11-27T04:35:19.416Z,4.07
2022-11-27T04:37:48.943Z,4.00
2022-11-27T04:40:19.069Z,4.11
2022-11-27T04:42:48.671Z,4.01
2022-11-27T04:45:18.343Z,4.03
2022-11-27T04:47:48.051Z,4.06
2022-11-27T04:50:17.690Z,4.14
2022-11-27T04:52:47.248Z,4.03
2022-11-27T04:55:17.030Z,3.97
2022-11-27T04:57:46.684Z,4.13
2022-11-27T05:00:17.382Z,4.11
2022-11-27T05:02:46.987Z,4.10
2022-11-27T05:05:17.406Z,3.95
2022-11-27T05:07:47.090Z,3.93
2022-11-27T05:10:16.835Z,4.04
2022-11-27T05:12:46.395Z,4.10
2022-11-27T05:15:16.159Z,4.14
2022-11-27T05:17:45.787Z,4.23
2022-11-27T05:20:15.507Z,4.15
2022-11-27T05:22:46.231Z,4.22
2022-11-27T05:25:15.924Z,4.10
2022-11-27T05:27:45.424Z,4.21
2022-11-27T05:30:15.036Z,4.06
2022-11-27T05:32:42.762Z,4.00
2022-11-27T05:35:12.294Z,4.13
2022-11-27T05:37:41.760Z,3.93
2022-11-27T05:40:11.802Z,4.06
2022-11-27T05:42:41.382Z,4.09
2022-11-27T05:45:11.349Z,3.80
2022-11-27T05:47:40.852Z,3.97
2022-11-27T05:50:10.590Z,3.97
2022-11-27T05:52:40.340Z,3.76
2022-11-27T05:55:10.177Z,3.86
2022-11-27T05:57:39.922Z,4.00
2022-11-27T06:00:10.568Z,4.12
2022-11-27T06:02:40.149Z,4.06
2022-11-27T06:05:09.855Z,4.11
2022-11-27T06:07:39.518Z,4.25
2022-11-27T06:10:09.665Z,4.17
2022-11-27T06:12:39.197Z,4.07
2022-11-27T06:15:09.341Z,4.21
2022-11-27T06:17:38.843Z,4.15
2022-11-27T06:20:09.346Z,4.14
2022-11-27T06:22:38.866Z,4.16
2022-11-27T06:25:09.511Z,4.25
2022-11-27T06:27:39.089Z,4.13
2022-11-27T06:30:10.062Z,4.21
2022-11-27T06:32:39.555Z,4.30
2022-11-27T06:35:11.225Z,4.27
2022-11-27T06:37:40.697Z,4.13
2022-11-27T06:40:10.921Z,3.95
2022-11-27T06:42:40.400Z,4.15
2022-11-27T06:45:10.912Z,4.27
2022-11-27T06:47:40.531Z,4.12
2022-11-27T06:50:10.653Z,4.27
2022-11-27T06:52:40.827Z,4.43
2022-11-27T06:55:10.427Z,4.36
2022-11-27T06:57:40.133Z,4.32
2022-11-27T07:00:10.606Z,4.25
2022-11-27T07:02:40.198Z,4.33
2022-11-27T07:05:10.022Z,4.43
2022-11-27T07:07:43.655Z,4.44
2022-11-27T07:10:13.480Z,4.46
2022-11-27T07:12:42.982Z,4.42
2022-11-27T07:15:12.522Z,3.97
2022-11-27T07:17:42.114Z,4.02
2022-11-27T07:20:12.433Z,4.34
2022-11-27T07:22:42.371Z,4.38
2022-11-27T07:25:11.947Z,4.38
2022-11-27T07:27:41.429Z,4.50
2022-11-27T07:30:11.965Z,4.52
2022-11-27T07:32:41.584Z,4.53
2022-11-27T07:35:11.920Z,4.47
2022-11-27T07:37:41.534Z,4.29
2022-11-27T07:40:11.450Z,4.50
2022-11-27T07:42:41.048Z,4.46
2022-11-27T07:45:12.144Z,4.22
2022-11-27T07:47:40.480Z,4.57
2022-11-27T07:50:12.240Z,4.42
2022-11-27T07:52:42.636Z,4.34
2022-11-27T07:55:10.930Z,4.48
2022-11-27T07:57:40.864Z,4.43
2022-11-27T08:00:11.861Z,4.35
2022-11-27T08:02:41.366Z,4.30
2022-11-27T08:05:13.172Z,4.22
2022-11-27T08:07:43.206Z,4.16
2022-11-27T08:10:12.863Z,4.20
2022-11-27T08:12:42.518Z,4.94
2022-11-27T08:15:13.446Z,5.00
2022-11-27T08:17:43.116Z,4.95
2022-11-27T08:20:13.707Z,4.47
2022-11-27T08:22:43.415Z,4.42
2022-11-27T08:25:13.232Z,4.60
2022-11-27T08:27:43.541Z,4.67
2022-11-27T08:30:13.593Z,4.68
2022-11-27T08:32:44.127Z,4.62
2022-11-27T08:35:13.772Z,4.74
2022-11-27T08:37:43.393Z,4.76
2022-11-27T08:40:14.085Z,4.47
2022-11-27T08:42:43.622Z,4.57
2022-11-27T08:45:13.249Z,4.65
2022-11-27T08:47:43.772Z,4.69
2022-11-27T08:50:14.159Z,4.79
2022-11-27T08:52:43.716Z,4.74
2022-11-27T08:55:13.265Z,4.52
2022-11-27T08:57:42.827Z,4.73
2022-11-27T09:00:13.401Z,4.67
2022-11-27T09:02:42.924Z,4.89
2022-11-27T09:05:12.465Z,4.81
2022-11-27T09:07:42.256Z,4.79
2022-11-27T09:10:12.775Z,4.93
2022-11-27T09:12:44.622Z,4.92
2022-11-27T09:15:14.603Z,4.89
2022-11-27T09:17:47.310Z,4.77
2022-11-27T09:20:16.881Z,4.80
2022-11-27T09:22:46.408Z,4.71
2022-11-27T09:25:15.910Z,4.87
2022-11-27T09:27:45.511Z,4.87
2022-11-27T09:30:15.456Z,5.00
2022-11-27T09:32:44.955Z,5.21
2022-11-27T09:35:14.981Z,4.92
2022-11-27T09:37:44.524Z,4.99
2022-11-27T09:40:18.339Z,4.41
2022-11-27T09:43:09.084Z,4.77
2022-11-27T09:45:50.567Z,4.80
2022-11-27T09:48:35.151Z,4.77
2022-11-27T09:51:34.234Z,4.93
2022-11-27T09:54:29.218Z,4.68
2022-11-27T09:56:59.618Z,4.74
2022-11-27T09:59:50.746Z,5.26
2022-11-27T10:02:43.369Z,5.31
2022-11-27T10:05:27.266Z,4.99
2022-11-27T10:08:26.704Z,5.36
2022-11-27T10:11:23.802Z,5.38
2022-11-27T10:14:20.801Z,4.87
2022-11-27T10:17:28.946Z,4.77
2022-11-27T10:20:19.570Z,5.00
2022-11-27T10:23:43.868Z,4.67
2022-11-27T10:26:44.894Z,5.14
2022-11-27T10:29:42.357Z,5.02
2022-11-27T10:32:54.078Z,4.96
2022-11-27T10:35:22.801Z,5.06
2022-11-27T10:38:10.222Z,4.97
2022-11-27T10:40:52.839Z,5.21
2022-11-27T10:43:25.649Z,5.55
2022-11-27T10:46:11.883Z,5.52
2022-11-27T10:48:42.238Z,5.37
2022-11-27T10:51:21.543Z,5.57
2022-11-27T10:53:54.817Z,5.02
2022-11-27T10:56:55.692Z,5.18
2022-11-27T10:59:34.913Z,5.25
2022-11-27T11:02:05.807Z,5.56
2022-11-27T11:04:38.345Z,5.62
2022-11-27T11:07:29.925Z,5.53
2022-11-27T11:09:59.381Z,5.39
2022-11-27T11:12:28.799Z,5.60
2022-11-27T11:15:01.799Z,5.50
2022-11-27T11:17:35.247Z,5.16
2022-11-27T11:20:34.354Z,5.49
2022-11-27T11:23:07.244Z,5.49
2022-11-27T11:25:36.767Z,5.66
2022-11-27T11:28:06.648Z,5.86
2022-11-27T11:30:39.631Z,5.48
2022-11-27T11:33:14.851Z,5.60
2022-11-27T11:35:54.844Z,5.74
2022-11-27T11:38:32.441Z,5.90
2022-11-27T11:41:09.679Z,5.85
2022-11-27T11:43:40.335Z,5.86
2022-11-27T11:46:23.560Z,5.69
2022-11-27T11:49:08.634Z,5.58
2022-11-27T11:51:50.961Z,5.67
2022-11-27T11:54:48.960Z,5.86
2022-11-27T11:57:57.775Z,5.90
2022-11-27T12:01:19.371Z,5.92
2022-11-27T12:04:50.917Z,6.11
2022-11-27T12:07:52.783Z,5.50
2022-11-27T12:10:39.605Z,5.54
2022-11-27T12:14:02.785Z,5.44
2022-11-27T12:16:48.522Z,5.17
2022-11-27T12:19:54.649Z,5.55
2022-11-27T12:23:03.105Z,4.95
2022-11-27T12:25:48.996Z,5.28
2022-11-27T12:29:38.356Z,5.58
2022-11-27T12:33:09.595Z,5.67
2022-11-27T12:36:09.056Z,5.83
2022-11-27T12:39:05.545Z,5.60
2022-11-27T12:41:59.048Z,5.85
2022-11-27T12:45:07.637Z,5.47
2022-11-27T12:48:19.314Z,5.72
2022-11-27T12:51:19.072Z,5.52
2022-11-27T12:54:15.115Z,5.46
2022-11-27T12:56:55.162Z,5.74
2022-11-27T12:59:55.961Z,5.82
2022-11-27T13:03:01.148Z,5.89
2022-11-27T13:05:50.687Z,5.46
2022-11-27T13:08:54.527Z,5.69
2022-11-27T13:11:39.692Z,5.62
2022-11-27T13:14:22.056Z,5.36
2022-11-27T13:17:03.334Z,5.42
2022-11-27T13:19:47.993Z,5.63
2022-11-27T13:22:34.846Z,5.57
2022-11-27T13:25:06.118Z,5.53
2022-11-27T13:27:38.531Z,5.50
2022-11-27T13:30:21.455Z,5.38
2022-11-27T13:32:57.829Z,5.46
2022-11-27T13:35:42.035Z,5.49
2022-11-27T13:38:21.450Z,5.63
2022-11-27T13:40:53.825Z,5.79
2022-11-27T13:43:44.444Z,5.52
2022-11-27T13:46:33.793Z,5.60
2022-11-27T13:49:06.532Z,5.78
2022-11-27T13:51:39.299Z,5.70
2022-11-27T13:54:21.318Z,6.04
2022-11-27T13:56:54.077Z,5.61
2022-11-27T13:59:26.426Z,5.52
2022-11-27T14:02:05.493Z,5.75
2022-11-27T14:04:50.560Z,5.61
2022-11-27T14:07:25.204Z,5.62
2022-11-27T14:09:56.972Z,5.57
2022-11-27T14:12:31.080Z,5.62
2022-11-27T14:15:07.221Z,5.54
2022-11-27T14:17:44.830Z,5.38
2022-11-27T14:20:17.572Z,5.44
2022-11-27T14:23:13.506Z,5.20
2022-11-27T14:25:43.411Z,5.35
2022-11-27T14:28:24.985Z,5.40
2022-11-27T14:30:58.245Z,5.38
2022-11-27T14:33:59.598Z,5.32
2022-11-27T14:36:35.575Z,5.38
2022-11-27T14:39:05.626Z,5.36
2022-11-27T14:41:36.065Z,5.24
2022-11-27T14:44:17.248Z,5.49
2022-11-27T14:46:46.912Z,5.30
2022-11-27T14:49:22.350Z,5.41
2022-11-27T14:51:53.054Z,5.32
2022-11-27T14:54:31.887Z,5.39
2022-11-27T14:57:01.733Z,5.39
2022-11-27T14:59:31.544Z,5.23
2022-11-27T15:02:14.575Z,5.31
2022-11-27T15:04:46.906Z,5.46
2022-11-27T15:07:25.421Z,5.32
2022-11-27T15:09:58.207Z,5.31
2022-11-27T15:12:34.178Z,5.17
2022-11-27T15:15:27.682Z,5.23
2022-11-27T15:18:03.529Z,5.18
2022-11-27T15:20:42.061Z,5.25
2022-11-27T15:23:32.415Z,5.45
2022-11-27T15:26:12.617Z,5.32
2022-11-27T15:28:54.027Z,5.32
2022-11-27T15:31:38.010Z,5.23
2022-11-27T15:34:13.496Z,5.30
2022-11-27T15:37:16.097Z,5.26
2022-11-27T15:39:55.463Z,5.19
2022-11-27T15:42:28.879Z,5.19
2022-11-27T15:44:59.276Z,5.00
2022-11-27T15:47:37.145Z,5.01
2022-11-27T15:50:10.700Z,5.06
2022-11-27T15:52:40.326Z,5.17
2022-11-27T15:55:17.516Z,5.19
2022-11-27T15:57:46.243Z,4.90
2022-11-27T16:00:17.760Z,5.16
2022-11-27T16:02:45.656Z,5.09
2022-11-27T16:05:16.324Z,4.88
2022-11-27T16:07:50.017Z,4.86
2022-11-27T16:10:21.962Z,4.91
2022-11-27T16:12:50.018Z,4.87
2022-11-27T16:15:22.637Z,4.85
2022-11-27T16:17:53.820Z,4.79
2022-11-27T16:20:23.407Z,4.85
2022-11-27T16:22:53.184Z,5.01
2022-11-27T16:25:22.788Z,5.03
2022-11-27T16:27:57.952Z,5.06
2022-11-27T16:30:31.372Z,5.01
2022-11-27T16:33:01.080Z,5.05
2022-11-27T16:35:30.613Z,5.17
2022-11-27T16:38:00.109Z,5.18
2022-11-27T16:40:29.854Z,5.20
2022-11-27T16:43:01.114Z,5.01
2022-11-27T16:45:30.752Z,4.94
2022-11-27T16:48:00.450Z,5.13
2022-11-27T16:50:31.029Z,4.89
2022-11-27T16:53:00.545Z,4.96
2022-11-27T16:55:30.088Z,4.90
2022-11-27T16:57:59.548Z,4.95
2022-11-27T17:00:29.008Z,5.04
2022-11-27T17:02:58.594Z,4.99
2022-11-27T17:05:28.020Z,5.24
2022-11-27T17:07:57.549Z,5.29
2022-11-27T17:10:26.366Z,5.39
2022-11-27T17:12:55.827Z,5.24
2022-11-27T17:15:25.482Z,5.23
2022-11-27T17:17:57.870Z,4.92
2022-11-27T17:20:27.852Z,4.89
2022-11-27T17:22:57.892Z,5.11
2022-11-27T17:25:30.048Z,5.13
2022-11-27T17:27:59.782Z,5.12
2022-11-27T17:30:29.379Z,4.97
2022-11-27T17:32:59.247Z,4.85
2022-11-27T17:35:30.885Z,4.79
2022-11-27T17:38:01.744Z,4.90
2022-11-27T17:40:30.937Z,4.92
2022-11-27T17:43:03.413Z,5.00
2022-11-27T17:45:33.216Z,4.75
2022-11-27T17:48:02.967Z,4.84
2022-11-27T17:50:33.979Z,4.90
2022-11-27T17:53:03.679Z,4.74
2022-11-27T17:55:34.379Z,4.79
2022-11-27T17:58:07.750Z,4.77
2022-11-27T18:00:43.767Z,4.78
2022-11-27T18:03:13.745Z,4.67
2022-11-27T18:05:43.407Z,4.74
2022-11-27T18:08:13.036Z,4.81
2022-11-27T18:10:42.735Z,4.78
2022-11-27T18:13:12.327Z,4.61
2022-11-27T18:15:50.011Z,4.87
2022-11-27T18:18:19.619Z,4.73
2022-11-27T18:20:50.603Z,4.93
2022-11-27T18:23:20.246Z,4.78
2022-11-27T18:25:49.717Z,4.86
2022-11-27T18:28:19.277Z,4.90
2022-11-27T18:30:48.770Z,4.97
2022-11-27T18:33:18.435Z,4.92
2022-11-27T18:35:48.012Z,4.96
2022-11-27T18:38:17.524Z,4.89
2022-11-27T18:40:47.056Z,5.03
2022-11-27T18:43:16.768Z,5.20
2022-11-27T18:45:46.438Z,4.68
2022-11-27T18:48:16.090Z,4.94
2022-11-27T18:50:45.680Z,4.88
2022-11-27T18:53:15.171Z,4.65
2022-11-27T18:55:48.931Z,5.16
2022-11-27T18:58:22.161Z,5.14
2022-11-27T19:00:54.652Z,5.23
2022-11-27T19:03:24.518Z,4.76
2022-11-27T19:05:54.071Z,4.92
2022-11-27T19:08:22.843Z,4.84
2022-11-27T19:10:52.458Z,5.01
2022-11-27T19:13:21.984Z,4.66
2022-11-27T19:15:52.013Z,4.89
2022-11-27T19:18:21.574Z,4.71
2022-11-27T19:20:52.242Z,4.73
2022-11-27T19:23:22.001Z,4.86
2022-11-27T19:25:50.562Z,4.89
2022-11-27T19:28:20.225Z,4.84
2022-11-27T19:30:48.195Z,4.92
2022-11-27T19:33:15.981Z,4.89
2022-11-27T19:35:46.655Z,5.17
2022-11-27T19:38:16.351Z,4.87
2022-11-27T19:40:46.943Z,4.87
2022-11-27T19:43:17.412Z,4.93
2022-11-27T19:45:45.964Z,4.97
2022-11-27T19:48:16.506Z,4.87
2022-11-27T19:50:47.403Z,4.87
2022-11-27T19:53:18.298Z,4.95
2022-11-27T19:55:55.151Z,4.89
2022-11-27T19:58:24.779Z,4.82
2022-11-27T20:00:55.468Z,4.84
2022-11-27T20:03:25.121Z,4.67
2022-11-27T20:06:11.987Z,4.91
2022-11-27T20:08:43.316Z,4.89
2022-11-27T20:11:22.560Z,5.02
2022-11-27T20:13:52.817Z,4.94
2022-11-27T20:16:22.809Z,4.92
2022-11-27T20:18:50.748Z,5.01
2022-11-27T20:21:23.261Z,5.10
2022-11-27T20:23:53.157Z,4.97
2022-11-27T20:26:29.162Z,5.11
2022-11-27T20:29:00.362Z,4.92
2022-11-27T20:31:37.922Z,5.06
2022-11-27T20:34:09.331Z,4.95
2022-11-27T20:36:41.089Z,4.96
2022-11-27T20:39:13.935Z,5.17
2022-11-27T20:41:46.094Z,4.98
2022-11-27T20:44:16.659Z,5.15
2022-11-27T20:46:46.947Z,5.01
2022-11-27T20:49:16.349Z,4.94
2022-11-27T20:51:44.301Z,4.96
2022-11-27T20:54:12.872Z,4.90
2022-11-27T20:56:44.957Z,5.06
2022-11-27T20:59:13.832Z,5.04
2022-11-27T21:01:44.328Z,4.97
2022-11-27T21:04:26.073Z,5.07
2022-11-27T21:06:58.627Z,4.96
2022-11-27T21:09:28.336Z,4.93
2022-11-27T21:11:58.992Z,4.84
2022-11-27T21:14:28.709Z,4.98
2022-11-27T21:17:04.444Z,4.88
2022-11-27T21:19:32.991Z,5.07
2022-11-27T21:22:00.840Z,5.17
2022-11-27T21:24:30.402Z,4.95
2022-11-27T21:26:58.316Z,4.97
2022-11-27T21:29:28.072Z,4.96
2022-11-27T21:31:57.849Z,5.01
2022-11-27T21:34:27.547Z,4.83
2022-11-27T21:36:55.594Z,4.98
2022-11-27T21:39:25.827Z,4.96
2022-11-27T21:41:57.446Z,4.73
2022-11-27T21:44:27.929Z,4.82
2022-11-27T21:46:56.731Z,4.82
2022-11-27T21:49:26.635Z,4.96
2022-11-27T21:51:56.290Z,4.96
2022-11-27T21:54:25.883Z,5.01
2022-11-27T21:56:55.572Z,4.98
2022-11-27T21:59:25.172Z,5.10
2022-11-27T22:01:57.290Z,5.16
2022-11-27T22:04:26.418Z,5.12
2022-11-27T22:06:55.911Z,5.12
2022-11-27T22:09:25.486Z,5.23
2022-11-27T22:11:55.109Z,5.13
2022-11-27T22:14:24.738Z,5.05
2022-11-27T22:16:56.461Z,5.19
2022-11-27T22:19:27.024Z,5.12
2022-11-27T22:21:56.603Z,5.12
2022-11-27T22:24:26.183Z,5.19
2022-11-27T22:26:56.601Z,5.14
2022-11-27T22:29:24.476Z,5.02
2022-11-27T22:31:54.435Z,5.20
2022-11-27T22:34:23.979Z,5.07
2022-11-27T22:36:56.534Z,5.16
2022-11-27T22:39:25.188Z,5.10
2022-11-27T22:41:54.877Z,5.21
2022-11-27T22:44:24.391Z,5.02
2022-11-27T22:46:53.816Z,5.10
2022-11-27T22:49:23.399Z,5.16
2022-11-27T22:51:52.882Z,5.18
2022-11-27T22:54:23.146Z,5.03
2022-11-27T22:56:52.736Z,5.01
2022-11-27T22:59:37.593Z,5.04
2022-11-27T23:02:07.682Z,5.25
2022-11-27T23:04:38.185Z,5.17
2022-11-27T23:07:07.963Z,5.03
2022-11-27T23:09:37.660Z,5.02
2022-11-27T23:12:07.426Z,5.07
2022-11-27T23:14:37.100Z,5.06
2022-11-27T23:17:06.653Z,5.09
2022-11-27T23:19:36.291Z,5.17
2022-11-27T23:22:05.924Z,5.04
2022-11-27T23:24:35.518Z,5.14
2022-11-27T23:27:05.018Z,5.25
2022-11-27T23:29:34.538Z,5.24
2022-11-27T23:32:04.155Z,4.98
2022-11-27T23:34:33.713Z,5.18
2022-11-27T23:37:03.336Z,5.04
2022-11-27T23:39:32.851Z,5.15
2022-11-27T23:42:02.420Z,5.02
2022-11-27T23:44:31.956Z,4.87
2022-11-27T23:47:01.527Z,4.91
2022-11-27T23:49:31.025Z,4.96
2022-11-27T23:52:00.483Z,5.12
2022-11-27T23:54:30.100Z,5.12
2022-11-27T23:56:59.582Z,4.94
2022-11-27T23:59:29.037Z,4.91
